Grayland, Washington
Current Conditions -  °F | °C
As of 10:53 AM on Friday 31 Oct 2014 (Local Time) from KHQM Reporting Station
Overcast Overcast  
Wind Chill: 52°   Ceiling: 9000
Heat Index: 52°   Visibility: 8mi
Dew Point: 50°   Wind: 0mph
Humidity: 93%   Direction: NA
Pressure: 29.8"   Gusts: NA
Location:  46.81°N, 124.1°W
Report Text: KHQM 311753Z AUTO 00000KT 8SM FEW055 OVC090 11/10 A2980 RMK AO2 SLP095 60007 T01110100 10111 20100 51023
Loading
Personal Weather Stations






























Interactive Weather Map
Tropical Storm Tracking
New forecast layout! Learn more

10-Day Weather Forecast

Advertisements
Track Severe Weather on mobile